ADDS METAR Data INFO
IDs: Format: Raw Decoded Include TAF

Data at: 0934 UTC 25 Feb 2018

KLAR 250853Z AUTO 19004KT 10SM BKN100 M12/M17 A2976 RMK AO2 SLP138 T11221167 56000
KLAR 250753Z AUTO VRB03KT 10SM CLR M12/M17 A2976 RMK AO2 SLP140 T11171167
KLAR 250653Z AUTO 23018KT 10SM OVC120 M11/M16 A2975 RMK AO2 SLP132 T11061156 410831156
KLAR 250553Z AUTO 24015G24KT 10SM BKN120 M09/M16 A2976 RMK AO2 SLP135 T10941161 11089 21106 53001
KLAR 250453Z AUTO 26017G24KT 10SM BKN120 M10/M16 A2976 RMK AO2 PK WND 26032/0412 SLP138 T11001161
KLAR 250353Z AUTO 26021KT 10SM BKN120 M09/M17 A2975 RMK AO2 PK WND 25036/0323 SLP141 T10941167
KLAR 250253Z AUTO 25017G24KT 10SM FEW047 SCT110 M09/M17 A2975 RMK AO2 SLP141 T10941172 51013
KLAR 250153Z AUTO 27018KT 10SM BKN055 BKN120 M09/M17 A2974 RMK AO2 SLP141 T10941172
KLAR 250053Z AUTO 25015KT 10SM FEW120 M10/M17 A2972 RMK AO2 SLP133 T11001172
KLAR 242353Z AUTO 26018G23KT 10SM CLR M09/M16 A2971 RMK AO2 PK WND 26031/2320 SLP123 T10891161 11083 21106 51003
KLAR 242253Z AUTO 26018G25KT 10SM SCT049 BKN060 M08/M16 A2970 RMK AO2 PK WND 27032/2201 SLP118 T10831161
KLAR 242153Z AUTO 26025G32KT 10SM BKN042 OVC050 M09/M15 A2971 RMK AO2 PK WND 25035/2140 SLP117 T10891150
KLAR 242053Z AUTO 26030KT 10SM FEW037 M09/M15 A2970 RMK AO2 PK WND 26039/2038 SLP113 T10891150 58013
KLAR 241953Z AUTO 27022G30KT 10SM BKN039 M09/M16 A2972 RMK AO2 PK WND 25031/1854 SLP120 T10941156
KLAR 241853Z AUTO 25021G30KT 10SM FEW042 FEW055 OVC080 M09/M16 A2974 RMK AO2 PK WND 25033/1805 SLP127 T10941161
KLAR 241753Z AUTO 26023G29KT 10SM SCT046 M11/M16 A2974 RMK AO2 PK WND 26034/1658 SLP123 T11061161 11106 21156 53004
KLAR 241653Z AUTO 26026G36KT 9SM CLR M11/M17 A2974 RMK AO2 PK WND 26038/1638 SLP122 T11111172
KLAR 241553Z AUTO 26023G32KT 8SM CLR M13/M18 A2973 RMK AO2 PK WND 25032/1545 SLP123 T11281183
KLAR 241453Z AUTO 24016KT 10SM CLR M13/M21 A2973 RMK AO2 SLP128 T11331211 50002
KLAR 241353Z AUTO 27008KT 10SM CLR M14/M22 A2975 RMK AO2 SLP142 T11441217
KLAR 241253Z AUTO 23011KT 10SM CLR M13/M20 A2973 RMK AO2 SLP129 T11331200
KLAR 241153Z AUTO 29009KT 10SM CLR M14/M19 A2972 RMK AO2 SLP126 T11391194 11078 21150 56006
KLAR 241053Z AUTO 28011KT 10SM CLR M13/M18 A2973 RMK AO2 SLP113 T11281183
KLAR 240953Z AUTO 24015KT 10SM CLR M11/M16 A2972 RMK AO2 SLP112 T11111161
KLAR 240853Z AUTO 28015KT 10SM CLR M12/M16 A2974 RMK AO2 SLP113 T11171156 56013
KLAR 240753Z AUTO 29008KT 10SM CLR M11/M13 A2976 RMK AO2 SLP117 T11061128
KLAR 240653Z AUTO 23009KT 10SM FEW120 M11/M11 A2976 RMK AO2 SLP118 T11061111 410331178
KLAR 240553Z AUTO 16008KT 8SM BKN070 OVC095 M08/M08 A2979 RMK AO2 SNE31 SLP126 P0000 60000 T10781083 11067 21094 58009
KLAR 240513Z AUTO 15013KT 4SM -SN BR OVC041 M07/M08 A2981 RMK AO2 P0000 T10721083
KLAR 240503Z AUTO 15013KT 2SM -SN BR OVC032 M07/M08 A2981 RMK AO2 P0000 T10721078
KLAR 240453Z AUTO 16015KT 1SM -SN BR OVC021 M07/M08 A2981 RMK AO2 SNB06 SLP148 P0000 T10721083
KLAR 240450Z AUTO 15016KT 1 1/4SM -SN BR OVC021 M07/M08 A2982 RMK AO2 SNB06 P0000
KLAR 240438Z AUTO 16014KT 2 1/2SM -SN BR OVC029 M07/M08 A2983 RMK AO2 SNB06 P0000 T10721083
KLAR 240353Z AUTO 15016G25KT 8SM OVC040 M07/M09 A2983 RMK AO2 SLP160 T10721094
KLAR 240253Z AUTO 16016KT 10SM FEW060 BKN075 OVC100 M08/M09 A2982 RMK AO2 SLP164 T10781094 53002
KLAR 240153Z AUTO 15019G25KT 10SM CLR M09/M11 A2981 RMK AO2 SLP168 T10891111
KLAR 240053Z AUTO 15017KT 10SM OVC110 M08/M10 A2981 RMK AO2 SLP169 T10831100
KLAR 232353Z AUTO 15017KT 10SM CLR M07/M09 A2981 RMK AO2 SLP161 60000 T10721094 11033 21072 55003
KLAR 232253Z AUTO 15017KT 10SM FEW041 FEW055 BKN075 M04/M09 A2981 RMK AO2 PK WND 15027/2200 SNB2158E10 SLP153 P0000 T10441094
KLAR 232153Z AUTO 15023KT 10SM FEW055 BKN090 OVC110 M06/M09 A2982 RMK AO2 PK WND 15027/2143 SLP155 T10561089